createdAt,value
2017-09-24T00:01:24.361Z,20.17
2017-09-24T00:03:51.920Z,22.40
2017-09-24T00:06:19.508Z,20.90
2017-09-24T00:08:47.181Z,22.15
2017-09-24T00:11:14.717Z,19.58
2017-09-24T00:13:42.287Z,20.12
2017-09-24T00:16:09.826Z,20.70
2017-09-24T00:18:38.145Z,19.73
2017-09-24T00:21:05.700Z,21.80
2017-09-24T00:23:33.264Z,21.75
2017-09-24T00:26:00.829Z,21.17
2017-09-24T00:28:28.389Z,20.98
2017-09-24T00:30:55.951Z,21.10
2017-09-24T00:33:23.512Z,20.52
2017-09-24T00:35:51.068Z,22.85
2017-09-24T00:38:18.650Z,22.55
2017-09-24T00:40:46.213Z,21.42
2017-09-24T00:43:13.791Z,21.17
2017-09-24T00:45:41.351Z,19.50
2017-09-24T00:48:08.907Z,20.08
2017-09-24T00:50:36.484Z,21.15
2017-09-24T00:53:04.026Z,20.98
2017-09-24T00:55:31.593Z,20.95
2017-09-24T00:57:59.147Z,21.48
2017-09-24T01:00:26.736Z,21.60
2017-09-24T01:02:54.269Z,19.33
2017-09-24T01:05:21.824Z,19.85
2017-09-24T01:07:49.396Z,19.75
2017-09-24T01:10:17.719Z,21.60
2017-09-24T01:12:46.058Z,21.23
2017-09-24T01:15:13.627Z,21.52
2017-09-24T01:17:41.201Z,19.15
2017-09-24T01:20:08.748Z,21.17
2017-09-24T01:22:36.305Z,20.80
2017-09-24T01:25:03.880Z,21.05
2017-09-24T01:27:31.436Z,20.45
2017-09-24T01:29:59.003Z,21.37
2017-09-24T01:32:26.546Z,21.37
2017-09-24T01:34:54.109Z,22.45
2017-09-24T01:37:21.656Z,20.08
2017-09-24T01:39:49.236Z,17.95
2017-09-24T01:42:16.797Z,18.87
2017-09-24T01:44:44.356Z,18.92
2017-09-24T01:47:11.929Z,20.23
2017-09-24T01:49:39.463Z,19.10
2017-09-24T01:52:07.049Z,19.48
2017-09-24T01:54:34.611Z,19.73
2017-09-24T01:57:02.170Z,20.37
2017-09-24T01:59:29.697Z,19.70
2017-09-24T02:01:57.278Z,18.80
2017-09-24T02:04:24.831Z,18.80
2017-09-24T02:06:52.414Z,17.50
2017-09-24T02:09:19.949Z,18.37
2017-09-24T02:11:47.481Z,19.08
2017-09-24T02:14:15.827Z,17.62
2017-09-24T02:16:43.376Z,19.17
2017-09-24T02:19:10.944Z,19.00
2017-09-24T02:21:38.491Z,22.15
2017-09-24T02:24:06.054Z,18.40
2017-09-24T02:26:33.589Z,18.90
2017-09-24T02:29:01.163Z,19.65
2017-09-24T02:31:28.693Z,20.40
2017-09-24T02:33:57.015Z,21.48
2017-09-24T02:36:24.557Z,20.27
2017-09-24T02:38:52.137Z,21.42
2017-09-24T02:41:19.673Z,20.20
2017-09-24T02:43:47.244Z,18.10
2017-09-24T02:46:14.774Z,21.27
2017-09-24T02:48:43.088Z,19.02
2017-09-24T02:51:10.663Z,19.33
2017-09-24T02:53:38.229Z,17.87
2017-09-24T02:56:05.792Z,17.75
2017-09-24T02:58:33.333Z,18.70
2017-09-24T03:01:00.911Z,19.42
2017-09-24T03:03:28.465Z,19.60
2017-09-24T03:05:56.032Z,20.17
2017-09-24T03:08:23.594Z,17.62
2017-09-24T03:10:51.129Z,19.85
2017-09-24T03:13:18.699Z,20.35
2017-09-24T03:15:46.247Z,20.42
2017-09-24T03:18:13.808Z,19.52
2017-09-24T03:20:41.372Z,20.67
2017-09-24T03:23:08.927Z,18.73
2017-09-24T03:25:37.249Z,18.33
2017-09-24T03:28:04.781Z,20.95
2017-09-24T03:30:32.353Z,20.40
2017-09-24T03:32:59.912Z,18.02
2017-09-24T03:35:27.488Z,19.23
2017-09-24T03:37:55.029Z,18.83
2017-09-24T03:40:22.575Z,17.65
2017-09-24T03:42:50.912Z,17.15
2017-09-24T03:45:18.450Z,19.08
2017-09-24T03:47:46.041Z,19.70
2017-09-24T03:50:13.594Z,17.33
2017-09-24T03:52:41.148Z,17.42
2017-09-24T03:55:08.701Z,18.50
2017-09-24T03:57:36.266Z,18.83
2017-09-24T04:00:03.834Z,17.67
2017-09-24T04:02:31.379Z,17.83
2017-09-24T04:04:58.949Z,18.02
2017-09-24T04:07:26.500Z,17.15
2017-09-24T04:09:54.071Z,19.50
2017-09-24T04:12:21.603Z,19.60
2017-09-24T04:14:49.167Z,19.65
2017-09-24T04:17:16.758Z,18.85
2017-09-24T04:19:44.303Z,17.00
2017-09-24T04:22:11.874Z,17.77
2017-09-24T04:24:39.424Z,16.75
2017-09-24T04:27:06.980Z,18.52
2017-09-24T04:29:34.535Z,17.00
2017-09-24T04:32:02.119Z,18.15
2017-09-24T04:34:29.667Z,19.00
2017-09-24T04:36:58.101Z,18.98
2017-09-24T04:39:25.652Z,19.48
2017-09-24T04:41:53.225Z,17.75
2017-09-24T04:44:20.777Z,19.77
2017-09-24T04:46:48.328Z,18.00
2017-09-24T04:49:15.857Z,19.10
2017-09-24T04:51:43.414Z,18.60
2017-09-24T04:54:10.949Z,18.48
2017-09-24T04:56:38.532Z,18.00
2017-09-24T04:59:06.076Z,19.02
2017-09-24T05:01:34.415Z,19.10
2017-09-24T05:04:01.948Z,19.50
2017-09-24T05:06:29.526Z,18.75
2017-09-24T05:08:57.064Z,15.98
2017-09-24T05:11:24.604Z,16.80
2017-09-24T05:13:52.939Z,15.98
2017-09-24T05:16:20.481Z,19.05
2017-09-24T05:18:48.066Z,16.80
2017-09-24T05:21:15.623Z,21.25
2017-09-24T05:23:43.165Z,19.08
2017-09-24T05:26:10.717Z,20.70
2017-09-24T05:28:38.271Z,19.45
2017-09-24T05:31:05.866Z,19.95
2017-09-24T05:33:33.405Z,21.65
2017-09-24T05:36:00.937Z,20.77
2017-09-24T05:38:29.276Z,19.23
2017-09-24T05:40:56.832Z,19.10
2017-09-24T05:43:24.399Z,18.48
2017-09-24T05:45:51.950Z,20.40
2017-09-24T05:48:19.509Z,21.00
2017-09-24T05:50:47.046Z,18.77
2017-09-24T05:53:14.627Z,19.92
2017-09-24T05:55:42.168Z,20.48
2017-09-24T05:58:09.708Z,21.23
2017-09-24T06:00:38.037Z,23.08
2017-09-24T06:03:05.578Z,20.55
2017-09-24T06:05:33.151Z,24.70
2017-09-24T06:08:00.699Z,25.12
2017-09-24T06:10:28.282Z,23.23
2017-09-24T06:12:55.835Z,24.08
2017-09-24T06:15:23.387Z,25.35
2017-09-24T06:17:50.965Z,25.08
2017-09-24T06:20:18.504Z,24.55
2017-09-24T06:22:46.101Z,22.30
2017-09-24T06:25:13.660Z,20.80
2017-09-24T06:27:41.978Z,24.50
2017-09-24T06:30:10.320Z,24.20
2017-09-24T06:32:37.872Z,30.50
2017-09-24T06:35:05.438Z,29.70
2017-09-24T06:37:32.973Z,31.55
2017-09-24T06:40:00.531Z,31.15
2017-09-24T06:42:28.108Z,28.57
2017-09-24T06:44:55.640Z,31.80
2017-09-24T06:47:23.970Z,28.97
2017-09-24T06:49:51.510Z,29.75
2017-09-24T06:52:19.083Z,33.20
2017-09-24T06:54:46.636Z,32.37
2017-09-24T06:57:14.197Z,29.57
2017-09-24T06:59:41.741Z,30.40
2017-09-24T07:02:10.047Z,27.40
2017-09-24T07:04:37.626Z,25.60
2017-09-24T07:07:05.162Z,27.30
2017-09-24T07:09:32.745Z,27.77
2017-09-24T07:12:00.315Z,27.37
2017-09-24T07:14:27.849Z,30.57
2017-09-24T07:16:55.406Z,33.13
2017-09-24T07:19:22.966Z,33.87
2017-09-24T07:21:50.545Z,33.20
2017-09-24T07:24:18.087Z,37.50
2017-09-24T07:26:45.620Z,49.57
2017-09-24T07:29:13.953Z,38.23
2017-09-24T07:31:41.512Z,38.00
2017-09-24T07:34:09.073Z,38.10
2017-09-24T07:36:36.628Z,35.70
2017-09-24T07:39:04.162Z,32.03
2017-09-24T07:41:32.496Z,33.90
2017-09-24T07:44:00.096Z,37.47
2017-09-24T07:46:28.438Z,34.50
2017-09-24T07:48:55.999Z,30.40
2017-09-24T07:51:23.565Z,33.60
2017-09-24T07:53:51.122Z,34.47
2017-09-24T07:56:18.658Z,36.20
2017-09-24T07:58:46.231Z,36.80
2017-09-24T08:01:13.769Z,38.10
2017-09-24T08:03:41.332Z,36.00
2017-09-24T08:06:08.873Z,36.80
2017-09-24T08:08:37.195Z,37.90
2017-09-24T08:11:04.760Z,39.17
2017-09-24T08:13:32.292Z,38.27
2017-09-24T08:15:59.860Z,34.63
2017-09-24T08:18:27.408Z,39.97
2017-09-24T08:20:55.012Z,36.53
2017-09-24T08:23:22.558Z,38.37
2017-09-24T08:25:50.090Z,38.73
2017-09-24T08:28:17.662Z,37.53
2017-09-24T08:30:45.204Z,38.30
2017-09-24T08:33:13.578Z,40.27
2017-09-24T08:35:41.885Z,37.90
2017-09-24T08:38:09.463Z,37.40
2017-09-24T08:40:37.049Z,39.00
2017-09-24T08:43:05.396Z,37.63
2017-09-24T08:45:32.959Z,42.27
2017-09-24T08:48:00.502Z,39.87
2017-09-24T08:50:28.084Z,36.97
2017-09-24T08:52:55.625Z,37.07
2017-09-24T08:55:23.980Z,35.87
2017-09-24T08:57:52.289Z,37.17
2017-09-24T09:00:19.825Z,36.43
2017-09-24T09:02:47.381Z,37.10
2017-09-24T09:05:14.929Z,37.37
2017-09-24T09:07:42.504Z,40.73
2017-09-24T09:10:10.043Z,36.90
2017-09-24T09:12:37.615Z,41.13
2017-09-24T09:15:05.173Z,38.87
2017-09-24T09:17:32.760Z,38.97
2017-09-24T09:20:01.080Z,40.20
2017-09-24T09:22:28.627Z,37.90
2017-09-24T09:24:56.185Z,39.17
2017-09-24T09:27:23.735Z,38.77
2017-09-24T09:29:52.051Z,38.33
2017-09-24T09:32:19.599Z,38.17
2017-09-24T09:34:59.124Z,39.77
2017-09-24T09:37:27.425Z,40.60
2017-09-24T09:39:55.102Z,43.17
2017-09-24T09:42:22.656Z,41.53
2017-09-24T09:44:52.173Z,41.90
2017-09-24T09:47:26.476Z,38.63
2017-09-24T09:49:54.037Z,39.17
2017-09-24T09:52:21.597Z,42.93
2017-09-24T09:54:49.128Z,43.73
2017-09-24T09:57:17.450Z,42.33
2017-09-24T09:59:45.010Z,41.57
2017-09-24T10:02:12.561Z,42.50
2017-09-24T10:04:40.130Z,43.80
2017-09-24T10:07:19.556Z,44.20
2017-09-24T10:09:58.832Z,47.40
2017-09-24T10:12:26.378Z,45.13
2017-09-24T10:14:53.917Z,44.70
2017-09-24T10:17:21.501Z,44.97
2017-09-24T10:19:49.041Z,43.47
2017-09-24T10:22:16.600Z,46.33
2017-09-24T10:24:44.150Z,47.93
2017-09-24T10:27:12.473Z,46.57
2017-09-24T10:29:40.006Z,43.47
2017-09-24T10:32:07.589Z,46.43
2017-09-24T10:34:35.124Z,45.13
2017-09-24T10:37:02.683Z,40.80
2017-09-24T10:39:30.986Z,44.13
2017-09-24T10:41:58.557Z,36.70
2017-09-24T10:44:26.115Z,38.10
2017-09-24T10:46:53.649Z,38.23
2017-09-24T10:49:21.217Z,32.13
2017-09-24T10:51:48.757Z,35.87
2017-09-24T10:54:17.076Z,33.43
2017-09-24T10:56:44.639Z,31.10
2017-09-24T10:59:12.187Z,30.93
2017-09-24T11:01:39.756Z,28.97
2017-09-24T11:04:07.308Z,35.10
2017-09-24T11:06:34.856Z,33.37
2017-09-24T11:09:03.186Z,33.17
2017-09-24T11:11:30.721Z,29.70
2017-09-24T11:13:58.249Z,29.47
2017-09-24T11:16:26.589Z,28.10
2017-09-24T11:18:54.136Z,30.90
2017-09-24T11:21:22.157Z,35.43
2017-09-24T11:23:50.470Z,21.73
2017-09-24T11:26:18.016Z,23.33
2017-09-24T11:28:45.579Z,30.10
2017-09-24T11:31:13.121Z,26.50
2017-09-24T11:33:41.457Z,21.23
2017-09-24T11:36:09.017Z,23.07
2017-09-24T11:38:36.549Z,23.17
2017-09-24T11:41:04.112Z,23.27
2017-09-24T11:43:31.659Z,21.63
2017-09-24T11:45:59.970Z,24.30
2017-09-24T11:48:29.175Z,21.57
2017-09-24T11:50:56.733Z,20.67
2017-09-24T11:53:24.270Z,19.10
2017-09-24T11:55:51.852Z,25.57
2017-09-24T11:58:19.404Z,25.57
2017-09-24T12:00:46.946Z,21.87
2017-09-24T12:03:15.273Z,22.80
2017-09-24T12:05:42.795Z,23.00
2017-09-24T12:08:10.353Z,22.17
2017-09-24T12:10:37.919Z,23.53
2017-09-24T12:13:05.477Z,23.33
2017-09-24T12:15:33.801Z,22.40
2017-09-24T12:18:01.349Z,22.90
2017-09-24T12:20:28.881Z,21.23
2017-09-24T12:22:56.584Z,21.50
2017-09-24T12:25:24.127Z,20.90
2017-09-24T12:27:51.675Z,22.30
2017-09-24T12:30:19.229Z,22.33
2017-09-24T12:32:47.539Z,22.70
2017-09-24T12:35:15.077Z,24.17
2017-09-24T12:37:42.648Z,25.77
2017-09-24T12:40:10.201Z,23.53
2017-09-24T12:42:37.733Z,21.30
2017-09-24T12:45:06.048Z,20.77
2017-09-24T12:47:33.601Z,23.67
2017-09-24T12:50:01.135Z,22.77
2017-09-24T12:52:29.452Z,23.97
2017-09-24T12:54:57.019Z,24.47
2017-09-24T12:57:24.571Z,25.30
2017-09-24T12:59:52.122Z,27.57
2017-09-24T13:02:20.446Z,24.13
2017-09-24T13:04:47.981Z,23.40
2017-09-24T13:07:15.553Z,21.80
2017-09-24T13:09:43.089Z,20.50
2017-09-24T13:12:10.635Z,22.53
2017-09-24T13:14:38.950Z,19.80
2017-09-24T13:17:06.503Z,19.43
2017-09-24T13:19:34.061Z,20.83
2017-09-24T13:22:01.594Z,21.83
2017-09-24T13:24:29.930Z,19.90
2017-09-24T13:26:58.353Z,22.20
2017-09-24T13:29:26.648Z,20.50
2017-09-24T13:31:54.983Z,21.07
2017-09-24T13:34:22.541Z,21.00
2017-09-24T13:36:50.117Z,21.50
2017-09-24T13:39:17.693Z,20.20
2017-09-24T13:41:45.240Z,17.17
2017-09-24T13:44:12.802Z,17.07
2017-09-24T13:46:40.329Z,17.30
2017-09-24T13:49:07.858Z,16.50
2017-09-24T13:51:36.178Z,15.97
2017-09-24T13:54:03.715Z,17.47
2017-09-24T13:56:31.279Z,15.40
2017-09-24T13:58:58.818Z,16.47
2017-09-24T14:01:27.116Z,16.23
2017-09-24T14:03:54.689Z,16.13
2017-09-24T14:06:22.223Z,18.53
2017-09-24T14:08:50.615Z,17.07
2017-09-24T14:11:18.162Z,14.03
2017-09-24T14:13:46.482Z,16.10
2017-09-24T14:16:14.039Z,14.90
2017-09-24T14:18:41.620Z,17.17
2017-09-24T14:21:09.155Z,14.97
2017-09-24T14:23:36.712Z,15.30
2017-09-24T14:26:04.273Z,15.90
2017-09-24T14:28:31.836Z,15.33
2017-09-24T14:30:59.403Z,14.30
2017-09-24T14:33:26.946Z,12.00
2017-09-24T14:35:54.493Z,16.00
2017-09-24T14:38:22.818Z,17.87
2017-09-24T14:40:50.392Z,16.53
2017-09-24T14:43:17.955Z,15.87
2017-09-24T14:45:46.268Z,16.30
2017-09-24T14:48:14.602Z,16.90
2017-09-24T14:50:42.142Z,17.60
2017-09-24T14:53:09.686Z,16.20
2017-09-24T14:55:38.045Z,15.73
2017-09-24T14:58:05.596Z,16.50
2017-09-24T15:00:33.143Z,15.67
2017-09-24T15:03:00.715Z,16.30
2017-09-24T15:05:28.251Z,15.80
2017-09-24T15:07:55.812Z,14.00
2017-09-24T15:10:23.384Z,14.63
2017-09-24T15:12:50.930Z,14.20
2017-09-24T15:15:18.473Z,14.23
2017-09-24T15:17:46.060Z,15.90
2017-09-24T15:20:13.592Z,14.77
2017-09-24T15:22:41.126Z,14.13
2017-09-24T15:25:08.728Z,14.73
2017-09-24T15:27:36.261Z,12.50
2017-09-24T15:30:04.577Z,13.00
2017-09-24T15:32:32.153Z,13.50
2017-09-24T15:34:59.690Z,11.50
2017-09-24T15:37:27.285Z,10.00
2017-09-24T15:39:54.843Z,11.27
2017-09-24T15:42:22.388Z,10.87
2017-09-24T15:44:49.982Z,11.97
2017-09-24T15:47:17.539Z,10.90
2017-09-24T15:49:45.083Z,10.13
2017-09-24T15:52:12.634Z,10.23
2017-09-24T15:54:40.181Z,9.37
2017-09-24T15:57:07.758Z,8.93
2017-09-24T15:59:35.307Z,9.00
2017-09-24T16:02:02.836Z,7.47
2017-09-24T16:04:31.173Z,9.03
2017-09-24T16:06:58.753Z,8.43
2017-09-24T16:09:26.396Z,7.73
2017-09-24T16:11:54.228Z,7.60
2017-09-24T16:14:22.547Z,7.57
2017-09-24T16:16:50.215Z,7.87
2017-09-24T16:19:17.765Z,5.80
2017-09-24T16:21:45.340Z,6.47
2017-09-24T16:24:12.884Z,5.33
2017-09-24T16:26:40.447Z,5.30
2017-09-24T16:29:08.017Z,5.90
2017-09-24T16:31:35.577Z,5.60
2017-09-24T16:34:03.159Z,4.70
2017-09-24T16:36:30.714Z,5.33
2017-09-24T16:38:58.251Z,5.10
2017-09-24T16:41:25.800Z,4.90
2017-09-24T16:43:53.353Z,4.60
2017-09-24T16:46:20.940Z,4.73
2017-09-24T16:48:48.483Z,4.80
2017-09-24T16:51:16.017Z,4.10
2017-09-24T16:53:44.353Z,4.40
2017-09-24T16:56:11.880Z,4.20
2017-09-24T16:58:39.446Z,5.10
2017-09-24T17:01:06.981Z,6.17
2017-09-24T17:03:35.281Z,6.13
2017-09-24T17:06:02.833Z,5.60
2017-09-24T17:08:31.130Z,5.17
2017-09-24T17:10:58.711Z,5.10
2017-09-24T17:13:26.255Z,4.73
2017-09-24T17:15:53.805Z,4.60
2017-09-24T17:18:21.395Z,5.50
2017-09-24T17:20:48.946Z,4.47
2017-09-24T17:23:16.500Z,5.03
2017-09-24T17:25:44.065Z,4.40
2017-09-24T17:28:11.643Z,3.40
2017-09-24T17:30:39.196Z,4.60
2017-09-24T17:33:06.729Z,4.47
2017-09-24T17:35:35.063Z,4.70
2017-09-24T17:38:02.625Z,5.87
2017-09-24T17:40:30.203Z,6.10
2017-09-24T17:42:57.742Z,7.23
2017-09-24T17:45:25.273Z,5.83
2017-09-24T17:47:52.848Z,6.10
2017-09-24T17:50:20.417Z,6.63
2017-09-24T17:52:48.017Z,6.20
2017-09-24T17:55:15.572Z,6.90
2017-09-24T17:57:43.121Z,5.20
2017-09-24T18:00:10.692Z,5.17
2017-09-24T18:02:38.245Z,5.07
2017-09-24T18:05:05.813Z,4.60
2017-09-24T18:07:33.366Z,4.30
2017-09-24T18:10:00.899Z,5.57
2017-09-24T18:12:28.449Z,4.90
2017-09-24T18:14:55.981Z,6.10
2017-09-24T18:17:24.333Z,6.00
2017-09-24T18:19:51.868Z,6.40
2017-09-24T18:22:19.455Z,6.33
2017-09-24T18:24:47.028Z,6.57
2017-09-24T18:27:14.620Z,5.27
2017-09-24T18:29:42.930Z,5.70
2017-09-24T18:32:10.500Z,14.90
2017-09-24T18:34:38.110Z,7.90
2017-09-24T18:37:05.658Z,7.70
2017-09-24T18:39:33.235Z,6.73
2017-09-24T18:42:00.788Z,6.70
2017-09-24T18:44:28.380Z,7.73
2017-09-24T18:46:56.697Z,7.30
2017-09-24T18:49:24.245Z,6.67
2017-09-24T18:51:51.792Z,7.60
2017-09-24T18:54:19.343Z,7.37
2017-09-24T18:56:46.927Z,7.70
2017-09-24T18:59:14.465Z,7.83
2017-09-24T19:01:42.796Z,7.30
2017-09-24T19:04:10.334Z,6.77
2017-09-24T19:06:37.880Z,7.43
2017-09-24T19:09:05.449Z,7.40
2017-09-24T19:11:32.988Z,7.23
2017-09-24T19:14:01.315Z,7.70
2017-09-24T19:16:28.857Z,7.50
2017-09-24T19:18:56.452Z,7.77
2017-09-24T19:21:24.016Z,7.75
2017-09-24T19:23:51.574Z,8.90
2017-09-24T19:26:19.138Z,8.00
2017-09-24T19:28:46.699Z,9.10
2017-09-24T19:31:14.450Z,8.00
2017-09-24T19:33:41.992Z,8.00
2017-09-24T19:36:09.548Z,8.23
2017-09-24T19:38:37.104Z,8.17
2017-09-24T19:41:04.669Z,8.70
2017-09-24T19:43:32.259Z,8.80
2017-09-24T19:45:59.830Z,7.47
2017-09-24T19:48:27.388Z,8.03
2017-09-24T19:50:54.948Z,8.47
2017-09-24T19:53:22.484Z,9.40
2017-09-24T19:55:50.307Z,9.97
2017-09-24T19:58:17.828Z,9.07
2017-09-24T20:00:45.389Z,9.70
2017-09-24T20:03:12.924Z,9.32
2017-09-24T20:05:41.238Z,9.15
2017-09-24T20:08:08.806Z,8.23
2017-09-24T20:10:36.364Z,10.07
2017-09-24T20:13:03.942Z,8.60
2017-09-24T20:15:31.487Z,8.97
2017-09-24T20:17:59.032Z,9.07
2017-09-24T20:20:26.594Z,8.73
2017-09-24T20:22:54.146Z,9.20
2017-09-24T20:25:21.729Z,10.37
2017-09-24T20:27:49.281Z,9.70
2017-09-24T20:30:16.835Z,7.97
2017-09-24T20:32:44.389Z,10.33
2017-09-24T20:35:11.925Z,8.60
2017-09-24T20:37:40.257Z,11.00
2017-09-24T20:40:07.803Z,8.73
2017-09-24T20:42:35.366Z,11.90
2017-09-24T20:45:02.912Z,10.30
2017-09-24T20:47:30.445Z,10.13
2017-09-24T20:49:58.024Z,10.00
2017-09-24T20:52:26.326Z,11.40
2017-09-24T20:54:53.905Z,10.87
2017-09-24T20:57:21.437Z,11.37
2017-09-24T20:59:49.002Z,10.17
2017-09-24T21:02:16.536Z,12.07
2017-09-24T21:04:44.864Z,13.87
2017-09-24T21:07:12.444Z,13.60
2017-09-24T21:09:39.994Z,15.40
2017-09-24T21:12:07.556Z,12.73
2017-09-24T21:14:35.143Z,13.23
2017-09-24T21:17:02.679Z,13.17
2017-09-24T21:19:30.233Z,13.30
2017-09-24T21:21:57.792Z,13.50
2017-09-24T21:24:25.376Z,11.30
2017-09-24T21:26:53.711Z,11.97
2017-09-24T21:29:21.275Z,11.80
2017-09-24T21:31:48.852Z,11.00
2017-09-24T21:34:16.392Z,10.90
2017-09-24T21:36:44.726Z,11.27
2017-09-24T21:39:12.266Z,11.00
2017-09-24T21:41:39.825Z,12.37
2017-09-24T21:44:07.410Z,11.47
2017-09-24T21:46:34.974Z,11.37
2017-09-24T21:49:02.541Z,10.60
2017-09-24T21:51:30.074Z,10.67
2017-09-24T21:53:57.617Z,10.40
2017-09-24T21:56:25.181Z,10.13
2017-09-24T21:58:52.721Z,13.27
2017-09-24T22:01:21.064Z,11.50
2017-09-24T22:03:48.613Z,11.50
2017-09-24T22:06:16.161Z,11.77
2017-09-24T22:08:43.724Z,11.37
2017-09-24T22:11:11.262Z,12.07
2017-09-24T22:13:38.841Z,11.23
2017-09-24T22:16:06.380Z,13.30
2017-09-24T22:18:33.935Z,11.20
2017-09-24T22:21:02.271Z,11.67
2017-09-24T22:23:30.581Z,11.87
2017-09-24T22:25:58.912Z,10.77
2017-09-24T22:28:26.476Z,10.70
2017-09-24T22:30:54.055Z,11.57
2017-09-24T22:33:21.599Z,11.93
2017-09-24T22:35:49.144Z,11.80
2017-09-24T22:38:16.694Z,12.50
2017-09-24T22:40:44.240Z,10.40
2017-09-24T22:43:12.555Z,10.90
2017-09-24T22:45:40.107Z,12.17
2017-09-24T22:48:07.676Z,11.67
2017-09-24T22:50:35.231Z,12.37
2017-09-24T22:53:02.790Z,11.90
2017-09-24T22:55:30.330Z,12.83
2017-09-24T22:57:58.713Z,11.70
2017-09-24T23:00:27.039Z,12.93
2017-09-24T23:02:54.615Z,10.40
2017-09-24T23:05:22.142Z,11.20
2017-09-24T23:07:49.700Z,12.57
2017-09-24T23:10:17.270Z,11.60
2017-09-24T23:12:44.800Z,11.10
2017-09-24T23:15:13.125Z,11.20
2017-09-24T23:17:40.675Z,11.50
2017-09-24T23:20:08.249Z,11.37
2017-09-24T23:22:37.777Z,10.57
2017-09-24T23:25:05.374Z,10.97
2017-09-24T23:27:33.674Z,12.60
2017-09-24T23:30:01.233Z,12.13
2017-09-24T23:32:28.774Z,13.50
2017-09-24T23:34:57.123Z,14.90
2017-09-24T23:37:24.683Z,11.80
2017-09-24T23:39:52.228Z,14.90
2017-09-24T23:42:19.782Z,15.10
2017-09-24T23:44:47.333Z,13.93
2017-09-24T23:47:14.911Z,13.83
2017-09-24T23:49:42.463Z,13.10
2017-09-24T23:52:10.026Z,14.47
2017-09-24T23:54:37.561Z,11.77
2017-09-24T23:57:05.107Z,12.43
2017-09-24T23:59:33.432Z,14.60
